createdAt,value
2019-05-05T00:01:55.680Z,97598.16
2019-05-05T00:04:45.479Z,97594.14
2019-05-05T00:07:19.333Z,97592.23
2019-05-05T00:09:49.003Z,97588.80
2019-05-05T00:12:34.957Z,97588.04
2019-05-05T00:15:27.184Z,97598.70
2019-05-05T00:17:56.754Z,97601.13
2019-05-05T00:20:26.205Z,97597.90
2019-05-05T00:22:55.820Z,97594.44
2019-05-05T00:25:25.378Z,97590.67
2019-05-05T00:27:54.817Z,97590.44
2019-05-05T00:30:24.961Z,97586.91
2019-05-05T00:32:54.966Z,97590.63
2019-05-05T00:35:25.239Z,97591.27
2019-05-05T00:37:54.825Z,97596.00
2019-05-05T00:40:24.909Z,97607.45
2019-05-05T00:42:54.825Z,97618.38
2019-05-05T00:45:26.504Z,97630.59
2019-05-05T00:48:12.008Z,97628.28
2019-05-05T00:50:41.775Z,97627.70
2019-05-05T00:53:11.252Z,97627.52
2019-05-05T00:55:40.697Z,97633.30
2019-05-05T00:58:10.188Z,97637.61
2019-05-05T01:01:08.057Z,97641.08
2019-05-05T01:03:37.607Z,97643.69
2019-05-05T01:06:14.988Z,97648.57
2019-05-05T01:08:44.619Z,97648.66
2019-05-05T01:11:16.063Z,97645.86
2019-05-05T01:13:45.682Z,97651.05
2019-05-05T01:16:15.314Z,97657.86
2019-05-05T01:18:45.179Z,97659.47
2019-05-05T01:21:15.103Z,97658.67
2019-05-05T01:23:45.514Z,97672.70
2019-05-05T01:26:15.120Z,97673.39
2019-05-05T01:28:44.813Z,97670.83
2019-05-05T01:31:18.196Z,97676.63
2019-05-05T01:34:19.099Z,97684.35
2019-05-05T01:36:54.353Z,97688.46
2019-05-05T01:39:49.178Z,97695.12
2019-05-05T01:42:18.736Z,97696.73
2019-05-05T01:44:48.198Z,97702.30
2019-05-05T01:47:17.692Z,97700.94
2019-05-05T01:49:47.870Z,97693.17
2019-05-05T01:52:17.391Z,97698.03
2019-05-05T01:54:46.846Z,97695.15
2019-05-05T01:57:16.505Z,97700.48
2019-05-05T01:59:46.382Z,97702.30
2019-05-05T02:02:15.835Z,97708.41
2019-05-05T02:04:45.343Z,97701.48
2019-05-05T02:07:15.122Z,97704.42
2019-05-05T02:09:45.100Z,97699.09
2019-05-05T02:12:15.870Z,97707.14
2019-05-05T02:14:45.474Z,97713.92
2019-05-05T02:17:15.015Z,97719.25
2019-05-05T02:19:44.545Z,97713.87
2019-05-05T02:22:14.780Z,97716.33
2019-05-05T02:24:44.606Z,97711.05
2019-05-05T02:27:14.793Z,97711.57
2019-05-05T02:30:06.260Z,97712.91
2019-05-05T02:32:55.400Z,97715.09
2019-05-05T02:35:25.786Z,97709.98
2019-05-05T02:37:55.943Z,97715.63
2019-05-05T02:40:26.130Z,97714.05
2019-05-05T02:42:57.105Z,97715.59
2019-05-05T02:45:57.802Z,97710.89
2019-05-05T02:48:29.296Z,97715.37
2019-05-05T02:51:02.639Z,97720.11
2019-05-05T02:53:43.963Z,97723.83
2019-05-05T02:56:20.600Z,97720.59
2019-05-05T02:58:53.802Z,97720.59
2019-05-05T03:01:46.162Z,97720.53
2019-05-05T03:04:15.668Z,97722.44
2019-05-05T03:06:49.167Z,97720.25
2019-05-05T03:09:21.423Z,97722.39
2019-05-05T03:11:54.100Z,97723.94
2019-05-05T03:14:26.432Z,97723.53
2019-05-05T03:16:57.046Z,97724.13
2019-05-05T03:19:27.007Z,97720.27
2019-05-05T03:21:57.280Z,97719.47
2019-05-05T03:24:27.324Z,97719.67
2019-05-05T03:26:57.189Z,97717.66
2019-05-05T03:29:27.143Z,97723.73
2019-05-05T03:31:58.006Z,97717.23
2019-05-05T03:34:28.074Z,97719.93
2019-05-05T03:36:57.870Z,97726.14
2019-05-05T03:39:30.369Z,97733.95
2019-05-05T03:42:17.745Z,97726.70
2019-05-05T03:44:59.957Z,97724.38
2019-05-05T03:47:29.954Z,97731.38
2019-05-05T03:49:59.613Z,97732.36
2019-05-05T03:52:29.155Z,97730.15
2019-05-05T03:54:59.478Z,97735.27
2019-05-05T03:57:29.333Z,97733.52
2019-05-05T03:59:59.100Z,97736.02
2019-05-05T04:02:35.818Z,97743.45
2019-05-05T04:05:18.812Z,97746.19
2019-05-05T04:07:48.367Z,97734.20
2019-05-05T04:10:17.871Z,97738.77
2019-05-05T04:12:47.811Z,97741.42
2019-05-05T04:15:17.453Z,97747.16
2019-05-05T04:18:05.863Z,97751.27
2019-05-05T04:20:40.965Z,97754.80
2019-05-05T04:23:10.582Z,97762.27
2019-05-05T04:25:40.018Z,97767.65
2019-05-05T04:28:09.500Z,97764.64
2019-05-05T04:30:39.135Z,97766.52
2019-05-05T04:33:08.664Z,97771.36
2019-05-05T04:35:38.137Z,97768.62
2019-05-05T04:38:07.591Z,97774.95
2019-05-05T04:40:37.062Z,97780.06
2019-05-05T04:43:06.744Z,97783.36
2019-05-05T04:45:36.204Z,97783.34
2019-05-05T04:48:13.822Z,97787.72
2019-05-05T04:51:00.877Z,97783.58
2019-05-05T04:53:46.553Z,97789.70
2019-05-05T04:56:15.996Z,97793.52
2019-05-05T04:58:45.468Z,97786.53
2019-05-05T05:01:14.940Z,97787.86
2019-05-05T05:04:03.751Z,97797.11
2019-05-05T05:06:40.179Z,97790.11
2019-05-05T05:09:09.678Z,97796.81
2019-05-05T05:11:39.306Z,97801.81
2019-05-05T05:14:08.747Z,97802.80
2019-05-05T05:16:38.331Z,97799.02
2019-05-05T05:19:07.765Z,97802.16
2019-05-05T05:21:37.312Z,97794.37
2019-05-05T05:24:06.753Z,97797.97
2019-05-05T05:26:36.235Z,97793.02
2019-05-05T05:29:05.609Z,97789.30
2019-05-05T05:31:35.047Z,97791.09
2019-05-05T05:34:04.540Z,97797.31
2019-05-05T05:36:33.991Z,97807.89
2019-05-05T05:39:10.106Z,97808.44
2019-05-05T05:41:46.448Z,97819.44
2019-05-05T05:44:28.074Z,97817.02
2019-05-05T05:47:03.648Z,97825.95
2019-05-05T05:49:49.406Z,97836.73
2019-05-05T05:52:19.448Z,97844.72
2019-05-05T05:54:48.950Z,97853.63
2019-05-05T05:57:18.356Z,97859.03
2019-05-05T05:59:47.726Z,97860.53
2019-05-05T06:02:17.129Z,97867.92
2019-05-05T06:04:46.479Z,97873.05
2019-05-05T06:07:15.977Z,97876.25
2019-05-05T06:09:45.440Z,97874.21
2019-05-05T06:12:14.850Z,97872.69
2019-05-05T06:14:44.724Z,97883.33
2019-05-05T06:17:14.275Z,97881.23
2019-05-05T06:19:44.635Z,97891.19
2019-05-05T06:22:27.851Z,97896.63
2019-05-05T06:24:45.358Z,97902.58
2019-05-05T06:27:15.003Z,97902.63
2019-05-05T06:29:44.424Z,97908.33
2019-05-05T06:32:14.600Z,97902.73
2019-05-05T06:34:44.462Z,97916.20
2019-05-05T06:37:14.457Z,97914.11
2019-05-05T06:39:44.437Z,97922.40
2019-05-05T06:42:31.648Z,97916.83
2019-05-05T06:45:18.976Z,97923.01
2019-05-05T06:47:48.368Z,97928.50
2019-05-05T06:50:17.947Z,97927.51
2019-05-05T06:52:47.333Z,97923.55
2019-05-05T06:55:16.719Z,97924.31
2019-05-05T06:57:46.158Z,97929.16
2019-05-05T07:00:15.554Z,97930.98
2019-05-05T07:02:44.933Z,97936.67
2019-05-05T07:05:14.431Z,97937.34
2019-05-05T07:07:43.782Z,97938.42
2019-05-05T07:10:14.116Z,97934.20
2019-05-05T07:12:44.077Z,97934.21
2019-05-05T07:15:14.519Z,97933.45
2019-05-05T07:17:44.393Z,97939.11
2019-05-05T07:20:14.087Z,97944.20
2019-05-05T07:22:57.994Z,97941.54
2019-05-05T07:25:14.732Z,97937.54
2019-05-05T07:27:44.372Z,97944.77
2019-05-05T07:30:13.943Z,97942.63
2019-05-05T07:32:44.286Z,97946.08
2019-05-05T07:35:20.018Z,97953.86
2019-05-05T07:37:49.401Z,97948.20
2019-05-05T07:40:19.009Z,97966.42
2019-05-05T07:42:48.498Z,97965.39
2019-05-05T07:45:22.429Z,97962.95
2019-05-05T07:47:48.991Z,97962.95
2019-05-05T07:50:28.619Z,97963.50
2019-05-05T07:52:49.543Z,97970.98
2019-05-05T07:55:18.943Z,97982.77
2019-05-05T07:57:48.335Z,97983.58
2019-05-05T08:00:17.924Z,97984.38
2019-05-05T08:02:47.280Z,97988.66
2019-05-05T08:05:16.689Z,97996.17
2019-05-05T08:07:46.043Z,98004.45
2019-05-05T08:10:15.432Z,98000.17
2019-05-05T08:12:44.807Z,98005.81
2019-05-05T08:15:15.994Z,98010.35
2019-05-05T08:18:07.415Z,98010.63
2019-05-05T08:20:39.870Z,98016.25
2019-05-05T08:23:28.576Z,98013.30
2019-05-05T08:26:04.490Z,98016.51
2019-05-05T08:28:44.963Z,98012.48
2019-05-05T08:31:22.197Z,98010.60
2019-05-05T08:33:51.591Z,98008.66
2019-05-05T08:36:20.963Z,98004.37
2019-05-05T08:38:50.366Z,98008.06
2019-05-05T08:41:19.932Z,98007.81
2019-05-05T08:43:49.413Z,97996.28
2019-05-05T08:46:18.885Z,97998.16
2019-05-05T08:48:48.305Z,98004.50
2019-05-05T08:51:17.827Z,98003.00
2019-05-05T08:53:48.408Z,98003.37
2019-05-05T08:56:17.944Z,98003.32
2019-05-05T08:58:49.816Z,97998.04
2019-05-05T09:01:18.661Z,98005.93
2019-05-05T09:03:48.053Z,98002.52
2019-05-05T09:06:17.439Z,98004.09
2019-05-05T09:08:47.161Z,98004.60
2019-05-05T09:11:16.526Z,98007.95
2019-05-05T09:13:46.006Z,98010.52
2019-05-05T09:16:15.547Z,98008.86
2019-05-05T09:19:10.346Z,98008.86
2019-05-05T09:21:39.912Z,98009.02
2019-05-05T09:24:40.725Z,98009.02
2019-05-05T09:27:35.311Z,98001.44
2019-05-05T09:30:06.193Z,97995.78
2019-05-05T09:32:35.640Z,97995.78
2019-05-05T09:35:05.662Z,97985.45
2019-05-05T09:37:35.105Z,97982.73
2019-05-05T09:40:05.079Z,97982.73
2019-05-05T09:42:34.445Z,97984.37
2019-05-05T09:45:04.753Z,97981.84
2019-05-05T09:47:34.531Z,97981.84
2019-05-05T09:50:04.093Z,97967.63
2019-05-05T09:52:33.829Z,97967.63
2019-05-05T09:55:03.943Z,97969.27
2019-05-05T09:57:34.409Z,97969.27
2019-05-05T10:00:10.651Z,97985.83
2019-05-05T10:02:40.064Z,97985.39
2019-05-05T10:05:09.815Z,97991.75
2019-05-05T10:07:39.189Z,97973.36
2019-05-05T10:10:09.310Z,97982.82
2019-05-05T10:12:38.676Z,97984.78
2019-05-05T10:15:08.404Z,97990.02
2019-05-05T10:17:37.889Z,97983.70
2019-05-05T10:20:07.726Z,97988.80
2019-05-05T10:22:37.123Z,97991.75
2019-05-05T10:25:24.875Z,97991.75
2019-05-05T10:27:54.725Z,97986.38
2019-05-05T10:30:24.216Z,97986.38
2019-05-05T10:32:54.517Z,97981.05
2019-05-05T10:35:24.069Z,97984.92
2019-05-05T10:37:54.447Z,97984.92
2019-05-05T10:40:27.884Z,97967.25
2019-05-05T10:42:57.491Z,97967.25
2019-05-05T10:45:27.335Z,97974.88
2019-05-05T10:47:56.723Z,97976.66
2019-05-05T10:50:26.089Z,97976.66
2019-05-05T10:52:55.657Z,97970.83
2019-05-05T10:55:25.096Z,97958.16
2019-05-05T10:57:54.842Z,97956.25
2019-05-05T11:00:49.394Z,97959.91
2019-05-05T11:03:18.909Z,97963.45
2019-05-05T11:05:48.654Z,97964.69
2019-05-05T11:08:18.138Z,97967.34
2019-05-05T11:10:48.148Z,97959.48
2019-05-05T11:13:17.646Z,97960.34
2019-05-05T11:15:47.286Z,97963.89
2019-05-05T11:18:16.979Z,97960.72
2019-05-05T11:20:46.449Z,97959.37
2019-05-05T11:23:15.873Z,97956.61
2019-05-05T11:25:45.623Z,97958.52
2019-05-05T11:28:15.320Z,97960.05
2019-05-05T11:30:45.801Z,97959.08
2019-05-05T11:33:34.451Z,97970.53
2019-05-05T11:36:23.998Z,97970.53
2019-05-05T11:38:53.813Z,97955.98
2019-05-05T11:41:24.241Z,97965.20
2019-05-05T11:43:53.814Z,97965.20
2019-05-05T11:46:24.744Z,97968.54
2019-05-05T11:48:54.620Z,97971.91
2019-05-05T11:51:24.941Z,97965.77
2019-05-05T11:53:55.091Z,97983.42
2019-05-05T11:56:24.660Z,97975.02
2019-05-05T11:58:54.746Z,97990.67
2019-05-05T12:01:24.431Z,97988.07
2019-05-05T12:03:53.969Z,97990.73
2019-05-05T12:06:24.699Z,97992.62
2019-05-05T12:08:54.580Z,97997.47
2019-05-05T12:11:24.193Z,97998.63
2019-05-05T12:13:54.645Z,98000.41
2019-05-05T12:16:31.542Z,98009.77
2019-05-05T12:19:03.263Z,98011.39
2019-05-05T12:21:33.735Z,98011.05
2019-05-05T12:24:07.887Z,98002.72
2019-05-05T12:26:59.027Z,98000.36
2019-05-05T12:29:31.182Z,97987.09
2019-05-05T12:32:00.564Z,97987.09
2019-05-05T12:34:30.226Z,97996.47
2019-05-05T12:36:59.651Z,97990.78
2019-05-05T12:39:29.193Z,97990.78
2019-05-05T12:41:58.782Z,97990.05
2019-05-05T12:44:39.444Z,97988.72
2019-05-05T12:47:19.268Z,97984.34
2019-05-05T12:49:48.702Z,97988.23
2019-05-05T12:52:18.057Z,97998.27
2019-05-05T12:54:47.460Z,97997.41
2019-05-05T12:57:16.857Z,97981.73
2019-05-05T12:59:46.220Z,97984.23
2019-05-05T13:02:15.723Z,97982.56
2019-05-05T13:04:45.292Z,97975.26
2019-05-05T13:07:14.703Z,97985.08
2019-05-05T13:09:44.283Z,97984.06
2019-05-05T13:12:14.991Z,97999.14
2019-05-05T13:14:44.559Z,97992.52
2019-05-05T13:17:14.287Z,97994.29
2019-05-05T13:19:51.077Z,97996.31
2019-05-05T13:22:54.995Z,97989.59
2019-05-05T13:25:33.648Z,97986.91
2019-05-05T13:28:04.124Z,97983.25
2019-05-05T13:30:34.383Z,97978.16
2019-05-05T13:33:05.447Z,97993.78
2019-05-05T13:35:34.980Z,97991.54
2019-05-05T13:38:04.377Z,97996.48
2019-05-05T13:40:34.602Z,98001.00
2019-05-05T13:43:04.426Z,98007.98
2019-05-05T13:45:44.887Z,98001.20
2019-05-05T13:48:14.429Z,97990.84
2019-05-05T13:50:46.243Z,97990.84
2019-05-05T13:53:15.704Z,98001.09
2019-05-05T13:55:46.049Z,97992.83
2019-05-05T13:58:15.529Z,98000.81
2019-05-05T14:00:44.901Z,97995.02
2019-05-05T14:03:14.396Z,97995.02
2019-05-05T14:05:43.808Z,97988.72
2019-05-05T14:08:14.680Z,97996.84
2019-05-05T14:10:44.179Z,97975.84
2019-05-05T14:13:15.203Z,97981.47
2019-05-05T14:15:44.781Z,98002.13
2019-05-05T14:18:14.406Z,97991.15
2019-05-05T14:20:43.800Z,97993.79
2019-05-05T14:23:14.885Z,98000.54
2019-05-05T14:25:44.537Z,97999.69
2019-05-05T14:28:14.217Z,97987.30
2019-05-05T14:30:49.342Z,97994.61
2019-05-05T14:33:24.698Z,97989.92
2019-05-05T14:36:13.811Z,97991.76
2019-05-05T14:38:49.578Z,98003.56
2019-05-05T14:41:19.108Z,98003.56
2019-05-05T14:43:48.530Z,97995.27
2019-05-05T14:46:17.911Z,98000.89
2019-05-05T14:48:47.289Z,98000.89
2019-05-05T14:51:17.062Z,98005.38
2019-05-05T14:53:46.414Z,97995.02
2019-05-05T14:56:15.815Z,97995.13
2019-05-05T14:58:45.218Z,97995.13
2019-05-05T15:01:14.619Z,97993.02
2019-05-05T15:03:44.556Z,97993.02
2019-05-05T15:06:35.729Z,97983.38
2019-05-05T15:09:38.949Z,97986.20
2019-05-05T15:12:19.662Z,97986.20
2019-05-05T15:14:49.073Z,97988.52
2019-05-05T15:17:18.430Z,97987.10
2019-05-05T15:19:47.843Z,97985.20
2019-05-05T15:22:17.266Z,97982.14
2019-05-05T15:24:47.224Z,97980.25
2019-05-05T15:27:16.609Z,97991.83
2019-05-05T15:29:46.001Z,97990.67
2019-05-05T15:32:15.392Z,97998.00
2019-05-05T15:34:44.771Z,97993.38
2019-05-05T15:37:14.547Z,97990.78
2019-05-05T15:39:44.285Z,97989.48
2019-05-05T15:42:13.694Z,97989.48
2019-05-05T15:44:43.897Z,97992.83
2019-05-05T15:47:13.682Z,97992.83
2019-05-05T15:49:44.100Z,97994.23
2019-05-05T15:52:13.840Z,97992.23
2019-05-05T15:54:44.707Z,97993.47
2019-05-05T15:57:14.855Z,97992.62
2019-05-05T15:59:45.328Z,98000.41
2019-05-05T16:02:14.731Z,97994.27
2019-05-05T16:04:44.204Z,97993.36
2019-05-05T16:07:13.906Z,97998.55
2019-05-05T16:09:44.364Z,97990.17
2019-05-05T16:12:14.775Z,97994.52
2019-05-05T16:15:04.356Z,97989.98
2019-05-05T16:17:48.210Z,97987.23
2019-05-05T16:20:24.340Z,97987.88
2019-05-05T16:23:03.565Z,97980.98
2019-05-05T16:25:33.274Z,97994.14
2019-05-05T16:28:05.374Z,97982.91
2019-05-05T16:30:33.973Z,97982.91
2019-05-05T16:33:04.211Z,97991.93
2019-05-05T16:35:34.275Z,97991.42
2019-05-05T16:38:06.460Z,97986.63
2019-05-05T16:40:35.258Z,97986.63
2019-05-05T16:43:04.759Z,97987.59
2019-05-05T16:45:34.151Z,97987.59
2019-05-05T16:48:04.002Z,97988.84
2019-05-05T16:50:34.087Z,97996.37
2019-05-05T16:53:05.935Z,97996.82
2019-05-05T16:55:55.868Z,97998.15
2019-05-05T16:58:25.228Z,97999.02
2019-05-05T17:00:55.177Z,97997.13
2019-05-05T17:03:24.558Z,97997.13
2019-05-05T17:05:54.681Z,97997.36
2019-05-05T17:08:25.181Z,97992.80
2019-05-05T17:10:54.558Z,97995.53
2019-05-05T17:13:30.485Z,97990.60
2019-05-05T17:16:22.149Z,97997.33
2019-05-05T17:19:00.677Z,97998.63
2019-05-05T17:21:47.997Z,97991.78
2019-05-05T17:24:17.457Z,97986.53
2019-05-05T17:26:46.909Z,97986.75
2019-05-05T17:29:16.286Z,97987.27
2019-05-05T17:31:45.672Z,97993.42
2019-05-05T17:34:15.060Z,97997.18
2019-05-05T17:36:45.316Z,98010.89
2019-05-05T17:39:14.877Z,98004.53
2019-05-05T17:42:18.367Z,97997.77
2019-05-05T17:45:14.160Z,98000.17
2019-05-05T17:47:48.138Z,98001.14
2019-05-05T17:50:23.956Z,97995.36
2019-05-05T17:53:08.867Z,98003.03
2019-05-05T17:55:40.605Z,97998.42
2019-05-05T17:58:10.005Z,98001.80
2019-05-05T18:00:47.131Z,98007.44
2019-05-05T18:03:16.878Z,98020.18
2019-05-05T18:05:59.421Z,98023.27
2019-05-05T18:08:37.906Z,98029.07
2019-05-05T18:11:13.913Z,98022.93
2019-05-05T18:13:46.857Z,98029.75
2019-05-05T18:16:17.389Z,98032.45
2019-05-05T18:18:46.779Z,98025.33
2019-05-05T18:21:16.165Z,98025.33
2019-05-05T18:23:45.550Z,98036.94
2019-05-05T18:26:15.022Z,98036.94
2019-05-05T18:28:45.454Z,98036.11
2019-05-05T18:31:15.579Z,98043.17
2019-05-05T18:33:44.942Z,98043.17
2019-05-05T18:36:14.427Z,98048.28
2019-05-05T18:38:44.455Z,98045.88
2019-05-05T18:41:21.198Z,98055.70
2019-05-05T18:44:00.795Z,98056.28
2019-05-05T18:46:30.830Z,98060.06
2019-05-05T18:49:00.224Z,98060.06
2019-05-05T18:51:29.597Z,98065.82
2019-05-05T18:53:58.985Z,98065.82
2019-05-05T18:56:28.470Z,98059.99
2019-05-05T18:58:57.951Z,98059.99
2019-05-05T19:01:38.396Z,98071.07
2019-05-05T19:04:36.243Z,98071.07
2019-05-05T19:07:10.439Z,98072.48
2019-05-05T19:09:51.196Z,98072.48
2019-05-05T19:12:10.967Z,98076.16
2019-05-05T19:14:40.376Z,98076.16
2019-05-05T19:17:09.831Z,98075.45
2019-05-05T19:19:40.942Z,98080.69
2019-05-05T19:22:13.741Z,98088.47
2019-05-05T19:24:44.092Z,98088.47
2019-05-05T19:27:14.179Z,98091.21
2019-05-05T19:29:45.970Z,98087.54
2019-05-05T19:32:14.866Z,98087.54
2019-05-05T19:34:44.257Z,98094.26
2019-05-05T19:37:14.070Z,98092.16
2019-05-05T19:39:43.512Z,98099.72
2019-05-05T19:42:14.425Z,98099.72
2019-05-05T19:44:43.961Z,98104.33
2019-05-05T19:47:19.051Z,98102.16
2019-05-05T19:50:10.420Z,98102.24
2019-05-05T19:52:39.853Z,98099.77
2019-05-05T19:55:09.428Z,98102.45
2019-05-05T19:57:39.184Z,98104.34
2019-05-05T20:00:09.141Z,98106.30
2019-05-05T20:02:38.591Z,98109.25
2019-05-05T20:05:08.553Z,98107.37
2019-05-05T20:07:38.059Z,98111.70
2019-05-05T20:10:08.059Z,98105.25
2019-05-05T20:12:37.462Z,98110.37
2019-05-05T20:15:08.985Z,98104.44
2019-05-05T20:17:38.578Z,98106.61
2019-05-05T20:20:09.079Z,98109.86
2019-05-05T20:22:39.305Z,98108.80
2019-05-05T20:25:09.888Z,98103.46
2019-05-05T20:27:39.316Z,98102.89
2019-05-05T20:30:10.615Z,98096.80
2019-05-05T20:32:49.619Z,98100.03
2019-05-05T20:35:56.201Z,98098.14
2019-05-05T20:38:44.022Z,98099.78
2019-05-05T20:41:17.207Z,98096.31
2019-05-05T20:43:46.678Z,98102.48
2019-05-05T20:46:16.066Z,98095.79
2019-05-05T20:48:45.491Z,98089.36
2019-05-05T20:51:14.864Z,98097.42
2019-05-05T20:53:45.236Z,98095.83
2019-05-05T20:56:15.479Z,98095.53
2019-05-05T20:58:44.854Z,98101.41
2019-05-05T21:01:14.771Z,98095.78
2019-05-05T21:03:44.137Z,98096.85
2019-05-05T21:06:14.909Z,98097.64
2019-05-05T21:08:44.343Z,98096.05
2019-05-05T21:11:14.262Z,98098.16
2019-05-05T21:13:45.071Z,98098.70
2019-05-05T21:16:15.989Z,98105.64
2019-05-05T21:18:45.434Z,98106.95
2019-05-05T21:21:20.244Z,98110.95
2019-05-05T21:23:57.771Z,98104.23
2019-05-05T21:26:46.197Z,98108.51
2019-05-05T21:29:16.405Z,98102.33
2019-05-05T21:31:45.785Z,98104.73
2019-05-05T21:34:15.193Z,98102.03
2019-05-05T21:36:44.989Z,98101.43
2019-05-05T21:39:14.977Z,98110.48
2019-05-05T21:41:44.596Z,98108.08
2019-05-05T21:44:14.729Z,98102.95
2019-05-05T21:46:44.385Z,98105.86
2019-05-05T21:49:13.951Z,98099.75
2019-05-05T21:52:07.901Z,98100.25
2019-05-05T21:54:44.330Z,98106.35
2019-05-05T21:57:45.019Z,98103.94
2019-05-05T22:00:34.711Z,98102.03
2019-05-05T22:03:04.492Z,98098.33
2019-05-05T22:05:34.472Z,98100.43
2019-05-05T22:08:04.732Z,98099.62
2019-05-05T22:10:34.453Z,98095.25
2019-05-05T22:13:04.870Z,98092.53
2019-05-05T22:15:35.719Z,98089.84
2019-05-05T22:18:05.365Z,98090.12
2019-05-05T22:20:40.426Z,98088.25
2019-05-05T22:23:09.951Z,98094.13
2019-05-05T22:25:39.426Z,98091.62
2019-05-05T22:28:08.829Z,98091.36
2019-05-05T22:30:38.455Z,98093.32
2019-05-05T22:33:07.836Z,98087.45
2019-05-05T22:35:37.251Z,98095.77
2019-05-05T22:38:07.276Z,98105.31
2019-05-05T22:40:36.675Z,98104.45
2019-05-05T22:43:06.183Z,98094.59
2019-05-05T22:45:35.540Z,98091.90
2019-05-05T22:48:05.033Z,98097.03
2019-05-05T22:50:35.130Z,98096.72
2019-05-05T22:53:04.569Z,98091.64
2019-05-05T22:55:34.552Z,98095.86
2019-05-05T22:58:04.206Z,98099.33
2019-05-05T23:00:34.820Z,98100.60
2019-05-05T23:03:13.573Z,98099.73
2019-05-05T23:05:54.686Z,98097.36
2019-05-05T23:08:24.432Z,98103.24
2019-05-05T23:10:54.458Z,98103.98
2019-05-05T23:13:24.116Z,98100.77
2019-05-05T23:16:00.499Z,98103.66
2019-05-05T23:18:30.006Z,98103.22
2019-05-05T23:21:17.459Z,98106.67
2019-05-05T23:24:04.880Z,98105.61
2019-05-05T23:26:36.244Z,98110.89
2019-05-05T23:29:05.651Z,98111.69
2019-05-05T23:31:35.085Z,98111.31
2019-05-05T23:34:04.644Z,98106.86
2019-05-05T23:36:34.104Z,98107.88
2019-05-05T23:39:05.385Z,98103.59
2019-05-05T23:41:35.315Z,98105.44
2019-05-05T23:44:05.298Z,98107.77
2019-05-05T23:46:34.969Z,98112.23
2019-05-05T23:49:04.597Z,98112.48
2019-05-05T23:51:34.675Z,98118.87
2019-05-05T23:54:04.484Z,98113.27
2019-05-05T23:56:34.933Z,98108.09
2019-05-05T23:59:04.606Z,98110.19
